createdAt,value
2022-12-11T00:00:40.416Z,14.93
2022-12-11T00:03:14.186Z,14.70
2022-12-11T00:05:45.689Z,14.63
2022-12-11T00:08:13.900Z,16.23
2022-12-11T00:10:48.524Z,15.20
2022-12-11T00:13:16.269Z,14.33
2022-12-11T00:15:45.196Z,15.60
2022-12-11T00:18:16.904Z,15.20
2022-12-11T00:20:45.680Z,14.23
2022-12-11T00:23:13.532Z,14.00
2022-12-11T00:25:45.214Z,14.37
2022-12-11T00:28:13.009Z,14.60
2022-12-11T00:30:41.731Z,14.50
2022-12-11T00:33:13.156Z,14.10
2022-12-11T00:35:41.217Z,15.43
2022-12-11T00:38:09.132Z,14.13
2022-12-11T00:43:26.634Z,15.30
2022-12-11T00:45:54.620Z,13.93
2022-12-11T00:48:23.897Z,15.13
2022-12-11T00:50:51.776Z,15.43
2022-12-11T00:53:19.425Z,15.07
2022-12-11T00:55:47.104Z,14.83
2022-12-11T00:58:14.890Z,15.07
2022-12-11T01:00:43.756Z,14.53
2022-12-11T01:03:13.933Z,14.77
2022-12-11T01:05:43.208Z,15.27
2022-12-11T01:08:10.937Z,14.70
2022-12-11T01:10:38.831Z,15.90
2022-12-11T01:15:56.160Z,14.90
2022-12-11T01:18:23.810Z,15.07
2022-12-11T01:20:53.204Z,14.23
2022-12-11T01:23:21.257Z,13.60
2022-12-11T01:25:49.103Z,14.30
2022-12-11T01:28:18.790Z,14.80
2022-12-11T01:30:46.515Z,14.87
2022-12-11T01:33:14.672Z,18.43
2022-12-11T01:35:42.474Z,15.23
2022-12-11T01:38:12.086Z,14.50
2022-12-11T01:40:39.821Z,15.97
2022-12-11T01:43:07.513Z,15.80
2022-12-11T01:45:44.799Z,15.67
2022-12-11T01:48:13.506Z,16.60
2022-12-11T01:50:43.000Z,15.53
2022-12-11T01:53:14.846Z,14.77
2022-12-11T01:55:42.906Z,15.73
2022-12-11T01:58:11.325Z,16.87
2022-12-11T02:00:39.294Z,17.17
2022-12-11T02:03:06.998Z,17.47
2022-12-11T02:05:34.754Z,16.50
2022-12-11T02:08:04.224Z,15.60
2022-12-11T02:10:40.756Z,17.63
2022-12-11T02:13:10.715Z,16.70
2022-12-11T02:15:40.820Z,16.70
2022-12-11T02:18:14.309Z,16.63
2022-12-11T02:20:43.576Z,16.33
2022-12-11T02:23:31.289Z,16.27
2022-12-11T02:26:05.114Z,16.47
2022-12-11T02:28:36.052Z,16.97
2022-12-11T02:31:05.554Z,16.30
2022-12-11T02:33:35.480Z,17.10
2022-12-11T02:36:04.744Z,16.50
2022-12-11T02:38:34.871Z,17.37
2022-12-11T02:41:03.938Z,17.60
2022-12-11T02:43:32.629Z,17.17
2022-12-11T02:46:02.914Z,17.70
2022-12-11T02:48:31.990Z,16.03
2022-12-11T02:51:00.594Z,16.67
2022-12-11T02:53:29.657Z,16.87
2022-12-11T02:56:00.433Z,16.40
2022-12-11T02:58:30.519Z,17.10
2022-12-11T03:00:58.646Z,16.47
2022-12-11T03:03:29.881Z,16.10
2022-12-11T03:05:57.664Z,16.13
2022-12-11T03:08:25.350Z,16.47
2022-12-11T03:10:53.594Z,17.53
2022-12-11T03:13:22.514Z,17.40
2022-12-11T03:15:56.594Z,17.53
2022-12-11T03:18:28.629Z,17.47
2022-12-11T03:21:05.599Z,16.73
2022-12-11T03:23:35.863Z,17.60
2022-12-11T03:26:06.053Z,15.67
2022-12-11T03:28:37.869Z,17.50
2022-12-11T03:31:09.089Z,16.33
2022-12-11T03:33:38.589Z,16.97
2022-12-11T03:36:12.123Z,15.80
2022-12-11T03:38:42.643Z,16.40
2022-12-11T03:41:11.728Z,16.03
2022-12-11T03:43:39.847Z,16.10
2022-12-11T03:46:09.312Z,16.30
2022-12-11T03:48:38.765Z,16.43
2022-12-11T03:51:08.707Z,15.43
2022-12-11T03:53:36.866Z,15.70
2022-12-11T03:56:05.833Z,15.73
2022-12-11T03:58:33.570Z,15.50
2022-12-11T04:01:01.190Z,15.03
2022-12-11T04:03:29.349Z,16.20
2022-12-11T04:05:57.043Z,15.87
2022-12-11T04:08:26.246Z,16.03
2022-12-11T04:11:14.294Z,15.40
2022-12-11T04:13:42.392Z,15.60
2022-12-11T04:16:09.304Z,14.50
2022-12-11T04:18:54.675Z,15.57
2022-12-11T04:21:39.828Z,15.77
2022-12-11T04:24:19.064Z,16.67
2022-12-11T04:26:47.487Z,16.40
2022-12-11T04:29:15.529Z,17.37
2022-12-11T04:31:43.749Z,16.47
2022-12-11T04:34:11.318Z,16.90
2022-12-11T04:36:39.113Z,16.40
2022-12-11T04:39:07.181Z,16.17
2022-12-11T04:41:37.176Z,16.87
2022-12-11T04:44:05.776Z,17.07
2022-12-11T04:46:33.630Z,17.93
2022-12-11T04:49:01.324Z,17.57
2022-12-11T04:51:29.437Z,17.50
2022-12-11T04:53:57.555Z,17.30
2022-12-11T04:56:25.206Z,18.37
2022-12-11T04:58:54.436Z,19.77
2022-12-11T05:01:23.112Z,18.20
2022-12-11T05:03:50.890Z,17.80
2022-12-11T05:06:18.860Z,18.33
2022-12-11T05:08:46.600Z,18.20
2022-12-11T05:11:15.020Z,19.23
2022-12-11T05:13:43.316Z,19.27
2022-12-11T05:16:13.569Z,19.17
2022-12-11T05:18:41.298Z,18.73
2022-12-11T05:21:10.689Z,19.30
2022-12-11T05:23:39.265Z,19.43
2022-12-11T05:26:07.551Z,19.93
2022-12-11T05:28:36.769Z,18.23
2022-12-11T05:31:07.969Z,17.87
2022-12-11T05:33:37.094Z,18.60
2022-12-11T05:36:04.935Z,17.27
2022-12-11T05:38:33.181Z,17.70
2022-12-11T05:41:01.734Z,18.23
2022-12-11T05:43:31.209Z,16.43
2022-12-11T05:46:05.729Z,18.50
2022-12-11T05:48:33.551Z,17.30
2022-12-11T05:51:03.033Z,19.27
2022-12-11T05:53:31.601Z,18.37
2022-12-11T05:56:02.549Z,16.67
2022-12-11T05:58:30.530Z,17.60
2022-12-11T06:00:58.188Z,17.83
2022-12-11T06:03:25.876Z,17.30
2022-12-11T06:05:53.766Z,17.07
2022-12-11T06:08:23.282Z,18.00
2022-12-11T06:10:51.472Z,17.77
2022-12-11T06:13:41.396Z,17.10
2022-12-11T06:16:10.036Z,17.03
2022-12-11T06:18:38.271Z,18.80
2022-12-11T06:21:13.517Z,16.00
2022-12-11T06:23:43.100Z,16.60
2022-12-11T06:26:10.864Z,15.97
2022-12-11T06:28:39.169Z,16.20
2022-12-11T06:31:07.530Z,17.00
2022-12-11T06:33:35.753Z,16.13
2022-12-11T06:36:03.796Z,16.40
2022-12-11T06:38:31.439Z,16.00
2022-12-11T06:41:01.333Z,16.80
2022-12-11T06:43:29.428Z,15.13
2022-12-11T06:46:03.455Z,16.13
2022-12-11T06:48:31.896Z,15.60
2022-12-11T06:50:59.588Z,16.40
2022-12-11T06:53:27.727Z,16.43
2022-12-11T06:55:55.565Z,15.50
2022-12-11T06:58:24.622Z,16.10
2022-12-11T07:00:52.416Z,16.67
2022-12-11T07:03:20.575Z,15.50
2022-12-11T07:05:48.211Z,14.83
2022-12-11T07:08:16.264Z,14.43
2022-12-11T07:10:44.077Z,14.00
2022-12-11T07:13:11.774Z,13.43
2022-12-11T07:15:40.745Z,13.30
2022-12-11T07:18:08.633Z,13.30
2022-12-11T07:20:36.570Z,12.73
2022-12-11T07:23:04.516Z,13.60
2022-12-11T07:25:32.321Z,12.50
2022-12-11T07:27:59.969Z,11.90
2022-12-11T07:30:27.868Z,12.17
2022-12-11T07:32:57.206Z,12.10
2022-12-11T07:35:25.214Z,12.33
2022-12-11T07:37:53.070Z,12.20
2022-12-11T07:40:20.932Z,13.07
2022-12-11T07:42:48.725Z,12.67
2022-12-11T07:45:16.299Z,14.00
2022-12-11T07:47:44.084Z,13.97
2022-12-11T07:50:13.020Z,13.03
2022-12-11T07:52:40.755Z,13.23
2022-12-11T07:55:09.047Z,12.50
2022-12-11T07:57:37.108Z,12.93
2022-12-11T08:00:05.629Z,13.47
2022-12-11T08:02:40.090Z,13.73
2022-12-11T08:05:08.958Z,13.70
2022-12-11T08:07:38.136Z,13.60
2022-12-11T08:10:06.606Z,12.70
2022-12-11T08:12:34.243Z,12.80
2022-12-11T08:15:02.074Z,12.10
2022-12-11T08:17:32.872Z,13.27
2022-12-11T08:20:05.299Z,12.37
2022-12-11T08:22:33.036Z,12.50
2022-12-11T08:25:02.001Z,12.90
2022-12-11T08:27:30.504Z,12.70
2022-12-11T08:29:58.544Z,13.37
2022-12-11T08:32:26.293Z,12.53
2022-12-11T08:34:54.125Z,13.30
2022-12-11T08:37:21.852Z,12.87
2022-12-11T08:39:49.762Z,12.60
2022-12-11T08:42:18.793Z,13.17
2022-12-11T08:44:48.516Z,14.80
2022-12-11T08:47:16.401Z,11.37
2022-12-11T08:49:44.453Z,11.90
2022-12-11T08:52:12.881Z,12.20
2022-12-11T08:54:40.719Z,12.60
2022-12-11T08:57:08.314Z,11.80
2022-12-11T08:59:37.384Z,12.33
2022-12-11T09:02:05.375Z,12.30
2022-12-11T09:04:33.033Z,12.90
2022-12-11T09:07:00.836Z,12.67
2022-12-11T09:09:28.549Z,13.43
2022-12-11T09:11:56.504Z,12.00
2022-12-11T09:14:24.637Z,12.97
2022-12-11T09:16:53.722Z,12.03
2022-12-11T09:19:21.409Z,11.77
2022-12-11T09:21:49.596Z,12.27
2022-12-11T09:24:17.833Z,12.27
2022-12-11T09:26:47.157Z,12.10
2022-12-11T09:29:15.108Z,12.23
2022-12-11T09:31:43.210Z,11.77
2022-12-11T09:34:13.718Z,11.73
2022-12-11T09:36:42.843Z,12.53
2022-12-11T09:39:12.141Z,12.57
2022-12-11T09:41:41.647Z,12.10
2022-12-11T09:44:24.810Z,12.60
2022-12-11T09:46:52.858Z,12.97
2022-12-11T09:49:27.528Z,12.13
2022-12-11T09:52:00.316Z,12.03
2022-12-11T09:54:28.338Z,11.37
2022-12-11T09:57:00.308Z,11.23
2022-12-11T09:59:33.296Z,12.40
2022-12-11T10:02:03.865Z,12.30
2022-12-11T10:04:38.097Z,12.47
2022-12-11T10:07:11.931Z,12.53
2022-12-11T10:09:44.587Z,12.30
2022-12-11T10:12:30.007Z,14.40
2022-12-11T10:15:06.575Z,12.20
2022-12-11T10:17:35.868Z,12.43
2022-12-11T10:20:12.393Z,12.53
2022-12-11T10:22:40.091Z,12.33
2022-12-11T10:25:11.507Z,12.47
2022-12-11T10:27:41.090Z,12.60
2022-12-11T10:30:14.013Z,12.60
2022-12-11T10:32:44.392Z,11.83
2022-12-11T10:35:18.745Z,11.57
2022-12-11T10:37:46.736Z,12.77
2022-12-11T10:40:14.406Z,13.40
2022-12-11T10:42:52.568Z,12.83
2022-12-11T10:45:20.241Z,13.57
2022-12-11T10:47:47.879Z,14.10
2022-12-11T10:50:27.105Z,14.23
2022-12-11T10:52:54.928Z,12.90
2022-12-11T10:55:23.959Z,12.27
2022-12-11T10:57:56.686Z,12.53
2022-12-11T11:00:30.319Z,14.00
2022-12-11T11:02:59.152Z,11.93
2022-12-11T11:05:32.348Z,13.00
2022-12-11T11:08:13.866Z,12.70
2022-12-11T11:10:50.740Z,13.27
2022-12-11T11:13:22.078Z,13.07
2022-12-11T11:15:50.121Z,13.03
2022-12-11T11:18:21.461Z,13.63
2022-12-11T11:20:50.772Z,13.30
2022-12-11T11:23:19.756Z,12.17
2022-12-11T11:25:52.712Z,12.87
2022-12-11T11:28:21.644Z,13.00
2022-12-11T11:30:59.616Z,12.20
2022-12-11T11:33:27.865Z,12.80
2022-12-11T11:35:58.223Z,12.60
2022-12-11T11:38:27.674Z,12.30
2022-12-11T11:41:02.443Z,12.80
2022-12-11T11:43:37.650Z,13.03
2022-12-11T11:46:07.664Z,12.73
2022-12-11T11:48:39.615Z,12.50
2022-12-11T11:51:15.087Z,13.00
2022-12-11T11:53:44.596Z,13.33
2022-12-11T11:56:18.498Z,12.20
2022-12-11T11:58:49.066Z,13.80
2022-12-11T12:01:18.263Z,13.60
2022-12-11T12:03:46.694Z,13.50
2022-12-11T12:06:22.390Z,12.57
2022-12-11T12:08:53.887Z,13.70
2022-12-11T12:11:29.041Z,13.60
2022-12-11T12:14:01.801Z,13.13
2022-12-11T12:16:52.703Z,13.27
2022-12-11T12:19:27.489Z,14.50
2022-12-11T12:21:56.722Z,13.80
2022-12-11T12:24:30.614Z,14.30
2022-12-11T12:27:01.883Z,13.07
2022-12-11T12:29:44.637Z,14.80
2022-12-11T12:32:18.126Z,13.90
2022-12-11T12:34:53.141Z,14.70
2022-12-11T12:37:28.766Z,13.00
2022-12-11T12:40:02.171Z,14.10
2022-12-11T12:42:32.738Z,14.70
2022-12-11T12:45:02.530Z,13.30
2022-12-11T12:47:33.542Z,12.00
2022-12-11T12:50:02.700Z,13.00
2022-12-11T12:52:33.035Z,14.27
2022-12-11T12:55:15.400Z,13.53
2022-12-11T12:57:45.269Z,12.80
2022-12-11T13:00:13.763Z,14.00
2022-12-11T13:02:49.310Z,13.87
2022-12-11T13:05:21.900Z,13.20
2022-12-11T13:07:54.438Z,13.30
2022-12-11T13:10:28.466Z,13.70
2022-12-11T13:12:56.751Z,13.20
2022-12-11T13:15:25.640Z,13.60
2022-12-11T13:17:53.662Z,13.33
2022-12-11T13:20:23.069Z,14.43
2022-12-11T13:23:09.986Z,14.23
2022-12-11T13:25:50.440Z,14.90
2022-12-11T13:28:24.009Z,13.57
2022-12-11T13:30:59.659Z,14.23
2022-12-11T13:33:28.030Z,13.27
2022-12-11T13:36:13.132Z,13.57
2022-12-11T13:38:47.993Z,13.63
2022-12-11T13:41:15.812Z,15.00
2022-12-11T13:43:46.420Z,16.20
2022-12-11T13:46:16.184Z,16.80
2022-12-11T13:48:47.593Z,15.83
2022-12-11T13:51:17.779Z,18.40
2022-12-11T13:53:47.856Z,17.70
2022-12-11T13:56:18.070Z,15.77
2022-12-11T13:58:45.992Z,14.97
2022-12-11T14:01:15.091Z,15.30
2022-12-11T14:03:54.666Z,17.17
2022-12-11T14:06:23.086Z,14.53
2022-12-11T14:08:53.577Z,14.10
2022-12-11T14:11:23.438Z,13.47
2022-12-11T14:13:51.552Z,12.90
2022-12-11T14:16:21.033Z,13.50
2022-12-11T14:18:49.784Z,14.70
2022-12-11T14:21:21.250Z,14.93
2022-12-11T14:23:54.145Z,16.90
2022-12-11T14:26:22.709Z,15.97
2022-12-11T14:28:50.557Z,16.40
2022-12-11T14:31:21.528Z,16.97
2022-12-11T14:33:52.461Z,14.93
2022-12-11T14:36:21.881Z,14.03
2022-12-11T14:38:56.541Z,13.83
2022-12-11T14:41:26.397Z,15.23
2022-12-11T14:43:55.539Z,14.67
2022-12-11T14:46:24.970Z,14.83
2022-12-11T14:48:59.225Z,15.40
2022-12-11T14:51:30.292Z,14.13
2022-12-11T14:53:59.720Z,15.57
2022-12-11T14:56:30.086Z,14.40
2022-12-11T14:59:00.354Z,14.47
2022-12-11T15:01:29.513Z,15.10
2022-12-11T15:04:04.949Z,14.80
2022-12-11T15:06:33.603Z,14.60
2022-12-11T15:09:17.607Z,14.90
2022-12-11T15:11:45.852Z,16.00
2022-12-11T15:14:14.567Z,15.57
2022-12-11T15:16:43.187Z,15.50
2022-12-11T15:19:17.403Z,16.33
2022-12-11T15:21:45.344Z,16.50
2022-12-11T15:24:23.145Z,15.07
2022-12-11T15:26:51.447Z,15.70
2022-12-11T15:29:27.544Z,14.60
2022-12-11T15:32:02.907Z,14.13
2022-12-11T15:34:34.814Z,14.87
2022-12-11T15:37:02.646Z,14.23
2022-12-11T15:39:31.823Z,13.70
2022-12-11T15:41:59.646Z,13.70
2022-12-11T15:44:27.308Z,14.50
2022-12-11T15:46:55.107Z,14.20
2022-12-11T15:49:24.467Z,14.53
2022-12-11T15:51:52.693Z,15.20
2022-12-11T15:54:20.518Z,14.67
2022-12-11T15:56:49.725Z,14.60
2022-12-11T15:59:17.782Z,15.60
2022-12-11T16:01:45.481Z,13.73
2022-12-11T16:04:13.124Z,14.90
2022-12-11T16:06:45.184Z,15.20
2022-12-11T16:09:12.905Z,14.90
2022-12-11T16:11:40.477Z,15.87
2022-12-11T16:14:09.783Z,16.10
2022-12-11T16:16:37.497Z,17.50
2022-12-11T16:19:05.257Z,16.73
2022-12-11T16:21:32.924Z,17.40
2022-12-11T16:24:00.947Z,15.93
2022-12-11T16:26:28.633Z,16.23
2022-12-11T16:28:57.132Z,15.03
2022-12-11T16:31:26.286Z,16.10
2022-12-11T16:33:53.886Z,15.93
2022-12-11T16:36:21.842Z,18.03
2022-12-11T16:38:53.810Z,18.37
2022-12-11T16:41:22.945Z,17.60
2022-12-11T16:43:50.649Z,16.53
2022-12-11T16:46:18.923Z,17.43
2022-12-11T16:48:47.996Z,17.53
2022-12-11T16:51:15.942Z,18.33
2022-12-11T16:53:43.621Z,18.27
2022-12-11T16:56:11.664Z,19.30
2022-12-11T16:58:40.474Z,16.63
2022-12-11T17:01:12.247Z,18.73
2022-12-11T17:03:40.519Z,17.70
2022-12-11T17:06:11.998Z,17.77
2022-12-11T17:08:40.354Z,19.13
2022-12-11T17:11:08.120Z,18.20
2022-12-11T17:13:36.452Z,17.60
2022-12-11T17:16:05.398Z,17.07
2022-12-11T17:18:33.250Z,18.13
2022-12-11T17:21:01.357Z,16.37
2022-12-11T17:23:30.943Z,19.10
2022-12-11T17:25:58.714Z,16.77
2022-12-11T17:28:26.376Z,16.40
2022-12-11T17:30:54.184Z,16.87
2022-12-11T17:33:21.995Z,17.70
2022-12-11T17:35:49.682Z,17.77
2022-12-11T17:38:17.639Z,18.07
2022-12-11T17:40:46.623Z,17.80
2022-12-11T17:43:14.571Z,17.70
2022-12-11T17:45:44.482Z,18.30
2022-12-11T17:48:12.451Z,17.90
2022-12-11T17:50:41.348Z,17.07
2022-12-11T17:53:09.553Z,18.50
2022-12-11T17:55:42.809Z,17.43
2022-12-11T17:58:12.545Z,19.17
2022-12-11T18:00:40.889Z,19.40
2022-12-11T18:03:08.644Z,18.50
2022-12-11T18:05:37.052Z,17.60
2022-12-11T18:08:05.085Z,20.50
2022-12-11T18:10:32.814Z,18.33
2022-12-11T18:13:01.086Z,17.23
2022-12-11T18:15:30.116Z,16.47
2022-12-11T18:17:58.116Z,18.33
2022-12-11T18:20:28.288Z,18.27
2022-12-11T18:22:55.975Z,18.70
2022-12-11T18:25:23.777Z,17.97
2022-12-11T18:27:52.100Z,18.17
2022-12-11T18:30:19.817Z,18.27
2022-12-11T18:32:48.795Z,18.73
2022-12-11T18:35:16.849Z,17.47
2022-12-11T18:37:44.754Z,18.63
2022-12-11T18:40:13.217Z,18.40
2022-12-11T18:42:40.885Z,18.30
2022-12-11T18:45:11.234Z,18.70
2022-12-11T18:47:39.138Z,18.87
2022-12-11T18:50:08.956Z,17.73
2022-12-11T18:52:36.821Z,16.70
2022-12-11T18:55:04.913Z,17.97
2022-12-11T18:57:32.709Z,16.70
2022-12-11T19:00:07.057Z,17.70
2022-12-11T19:02:35.357Z,18.53
2022-12-11T19:05:03.098Z,19.00
2022-12-11T19:07:32.212Z,19.27
2022-12-11T19:10:00.077Z,18.77
2022-12-11T19:12:29.301Z,18.97
2022-12-11T19:14:56.993Z,20.73
2022-12-11T19:17:24.768Z,17.53
2022-12-11T19:19:52.411Z,17.73
2022-12-11T19:22:20.421Z,18.10
2022-12-11T19:24:49.788Z,18.70
2022-12-11T19:27:17.474Z,17.40
2022-12-11T19:29:45.088Z,18.10
2022-12-11T19:32:13.104Z,18.80
2022-12-11T19:34:41.236Z,18.30
2022-12-11T19:37:09.274Z,18.30
2022-12-11T19:39:38.815Z,18.27
2022-12-11T19:42:07.932Z,17.50
2022-12-11T19:44:35.871Z,17.37
2022-12-11T19:47:03.786Z,17.67
2022-12-11T19:49:31.555Z,18.00
2022-12-11T19:51:59.448Z,18.60
2022-12-11T19:54:27.764Z,19.37
2022-12-11T19:56:55.342Z,18.30
2022-12-11T19:59:24.909Z,18.33
2022-12-11T20:01:52.665Z,18.53
2022-12-11T20:04:20.377Z,17.67
2022-12-11T20:06:48.191Z,16.30
2022-12-11T20:09:16.193Z,17.07
2022-12-11T20:11:44.370Z,17.60
2022-12-11T20:14:17.948Z,17.97
2022-12-11T20:19:36.286Z,18.90
2022-12-11T20:22:04.039Z,18.43
2022-12-11T20:24:31.887Z,17.03
2022-12-11T20:27:00.199Z,17.30
2022-12-11T20:29:29.176Z,18.00
2022-12-11T20:31:59.585Z,17.10
2022-12-11T20:34:27.578Z,16.23
2022-12-11T20:36:56.204Z,17.70
2022-12-11T20:39:24.333Z,18.20
2022-12-11T20:41:52.132Z,17.27
2022-12-11T20:44:20.230Z,18.60
2022-12-11T20:46:47.945Z,19.13
2022-12-11T20:49:17.173Z,18.23
2022-12-11T20:51:44.967Z,18.53
2022-12-11T20:54:13.112Z,19.07
2022-12-11T20:56:41.209Z,19.77
2022-12-11T20:59:08.977Z,19.30
2022-12-11T21:01:36.627Z,19.10
2022-12-11T21:04:04.288Z,19.03
2022-12-11T21:06:34.724Z,18.87
2022-12-11T21:09:04.947Z,18.80
2022-12-11T21:11:32.635Z,18.33
2022-12-11T21:14:00.956Z,18.07
2022-12-11T21:16:31.760Z,20.10
2022-12-11T21:18:59.828Z,18.90
2022-12-11T21:21:27.657Z,19.80
2022-12-11T21:23:56.687Z,19.23
2022-12-11T21:26:24.882Z,19.87
2022-12-11T21:28:52.942Z,18.97
2022-12-11T21:31:20.960Z,19.13
2022-12-11T21:33:48.693Z,20.97
2022-12-11T21:36:16.541Z,19.20
2022-12-11T21:38:44.810Z,20.33
2022-12-11T21:41:15.508Z,18.93
2022-12-11T21:44:14.555Z,21.27
2022-12-11T21:46:31.371Z,20.63
2022-12-11T21:49:00.462Z,21.43
2022-12-11T21:51:36.127Z,20.27
2022-12-11T21:54:07.090Z,22.93
2022-12-11T21:56:36.056Z,24.33
2022-12-11T21:59:04.773Z,23.80
2022-12-11T22:01:34.986Z,22.93
2022-12-11T22:04:02.916Z,26.00
2022-12-11T22:06:30.562Z,23.20
2022-12-11T22:08:58.511Z,21.77
2022-12-11T22:11:27.048Z,23.10
2022-12-11T22:13:56.493Z,24.50
2022-12-11T22:16:24.630Z,23.23
2022-12-11T22:18:53.580Z,24.50
2022-12-11T22:21:21.415Z,24.03
2022-12-11T22:23:49.598Z,23.70
2022-12-11T22:26:18.049Z,23.20
2022-12-11T22:28:46.125Z,24.90
2022-12-11T22:31:16.825Z,23.60
2022-12-11T22:33:44.762Z,25.07
2022-12-11T22:36:12.693Z,24.47
2022-12-11T22:38:40.715Z,22.90
2022-12-11T22:41:10.969Z,23.30
2022-12-11T22:43:38.978Z,23.20
2022-12-11T22:46:07.080Z,22.50
2022-12-11T22:48:36.623Z,22.70
2022-12-11T22:51:05.586Z,22.07
2022-12-11T22:53:33.703Z,23.57
2022-12-11T22:56:04.928Z,22.77
2022-12-11T22:58:33.429Z,23.33
2022-12-11T23:01:01.448Z,24.10
2022-12-11T23:03:29.466Z,23.90
2022-12-11T23:06:03.356Z,23.70
2022-12-11T23:08:33.152Z,22.80
2022-12-11T23:11:01.066Z,24.87
2022-12-11T23:13:28.735Z,24.43
2022-12-11T23:15:56.331Z,22.60
2022-12-11T23:18:24.204Z,23.33
2022-12-11T23:20:51.847Z,23.13
2022-12-11T23:23:21.185Z,23.53
2022-12-11T23:25:49.215Z,22.90
2022-12-11T23:28:16.911Z,23.83
2022-12-11T23:30:44.746Z,24.10
2022-12-11T23:33:12.621Z,23.30
2022-12-11T23:35:40.220Z,23.73
2022-12-11T23:38:08.217Z,24.03
2022-12-11T23:40:37.263Z,21.63
2022-12-11T23:43:04.957Z,22.30
2022-12-11T23:45:32.582Z,23.40
2022-12-11T23:48:00.467Z,22.10
2022-12-11T23:50:28.107Z,21.77
2022-12-11T23:52:55.808Z,20.73
2022-12-11T23:55:25.287Z,22.10
2022-12-11T23:57:54.396Z,20.97
